Time;durP1;ratioP1;P1;durP2;ratioP2;P2;SDS_P1;SDS_P2;PMS_P1;PMS_P2;Temp;Humidity;BMP_temperature;BMP_pressure;BME280_temperature;BME280_humidity;BME280_pressure;Samples;Min_cycle;Max_cycle;Signal;HPM_P1;HPM_P2
2023/02/25 00:01:19;;;;;;;8.23;1.98;;;4.50;99.90;;;;;;5051370;28;20722;-42
2023/02/25 00:03:45;;;;;;;7.75;1.75;;;4.50;99.90;;;;;;5062303;28;20048;-42
2023/02/25 00:06:17;;;;;;;4.53;1.55;;;4.50;99.90;;;;;;5049815;28;20019;-42
2023/02/25 00:08:45;;;;;;;8.27;2.00;;;4.50;99.90;;;;;;5063436;28;20529;-42
2023/02/25 00:11:12;;;;;;;5.90;1.90;;;4.50;99.90;;;;;;5051058;28;20035;-43
2023/02/25 00:13:40;;;;;;;7.22;1.80;;;4.50;99.90;;;;;;5062520;28;20032;-42
2023/02/25 00:16:06;;;;;;;6.85;1.83;;;4.50;99.90;;;;;;5061511;28;20056;-41
2023/02/25 00:18:32;;;;;;;5.45;1.60;;;4.50;99.90;;;;;;5062923;28;20139;-42
2023/02/25 00:20:58;;;;;;;9.02;2.13;;;4.50;99.90;;;;;;5061465;28;20538;-42
2023/02/25 00:23:24;;;;;;;12.10;2.05;;;4.50;99.90;;;;;;5062492;28;20113;-42
2023/02/25 00:26:01;;;;;;;7.75;2.03;;;4.40;99.90;;;;;;5061565;28;20025;-42
2023/02/25 00:28:27;;;;;;;10.65;2.10;;;4.40;99.90;;;;;;5062575;28;20038;-42
2023/02/25 00:30:52;;;;;;;7.50;1.90;;;4.40;99.90;;;;;;5061756;28;20024;-41
2023/02/25 00:33:18;;;;;;;9.95;2.20;;;4.40;99.90;;;;;;5060822;28;20443;-42
2023/02/25 00:35:43;;;;;;;6.32;2.13;;;4.40;99.90;;;;;;5056781;28;20017;-43
2023/02/25 00:38:09;;;;;;;8.52;2.08;;;4.50;99.90;;;;;;5053758;28;20032;-42
2023/02/25 00:40:38;;;;;;;10.73;2.08;;;4.50;99.90;;;;;;5060701;28;20025;-43
2023/02/25 00:43:04;;;;;;;10.10;2.00;;;4.50;99.90;;;;;;5050591;28;20158;-42
2023/02/25 00:45:33;;;;;;;12.30;2.72;;;4.50;99.90;;;;;;5062382;28;20123;-39
2023/02/25 00:47:59;;;;;;;8.55;2.47;;;4.50;99.90;;;;;;5061203;28;20027;-42
2023/02/25 00:50:25;;;;;;;7.95;2.42;;;4.60;99.90;;;;;;5062138;28;20028;-42
2023/02/25 00:52:50;;;;;;;9.25;2.15;;;4.60;99.90;;;;;;5053469;28;20032;-42
2023/02/25 00:55:16;;;;;;;9.98;2.20;;;4.60;99.90;;;;;;5041046;28;20063;-43
2023/02/25 00:57:42;;;;;;;9.18;2.35;;;4.60;99.90;;;;;;5053335;28;20111;-42
2023/02/25 01:00:14;;;;;;;10.35;2.33;;;4.60;99.90;;;;;;5041521;28;20033;-43
2023/02/25 01:02:41;;;;;;;11.95;2.63;;;4.60;99.90;;;;;;5052834;28;20060;-42
2023/02/25 01:05:07;;;;;;;10.40;2.00;;;4.60;99.90;;;;;;5041178;28;20396;-42
2023/02/25 01:07:33;;;;;;;9.73;2.45;;;4.60;99.90;;;;;;5051690;28;20350;-41
2023/02/25 01:09:59;;;;;;;10.32;2.80;;;4.70;99.90;;;;;;5059317;28;20484;-42
2023/02/25 01:12:25;;;;;;;13.32;2.88;;;4.60;99.90;;;;;;5060615;28;20024;-43
2023/02/25 01:14:54;;;;;;;12.13;2.80;;;4.60;99.90;;;;;;5045082;28;20048;-42
2023/02/25 01:17:19;;;;;;;11.00;2.60;;;4.60;99.90;;;;;;5046579;28;20047;-42
2023/02/25 01:19:45;;;;;;;11.55;2.50;;;4.60;99.90;;;;;;5060379;28;20032;-42
2023/02/25 01:22:10;;;;;;;10.77;2.30;;;4.60;99.90;;;;;;5061137;28;20036;-41
2023/02/25 01:24:36;;;;;;;9.40;3.08;;;4.60;99.90;;;;;;5060168;28;20047;-43
2023/02/25 01:27:03;;;;;;;11.63;2.45;;;4.60;99.90;;;;;;5060468;28;20024;-42
2023/02/25 01:29:32;;;;;;;12.10;2.40;;;4.60;99.90;;;;;;5060814;28;20028;-43
2023/02/25 01:32:00;;;;;;;10.25;1.80;;;4.60;99.90;;;;;;5060517;28;20021;-43
2023/02/25 01:34:27;;;;;;;12.07;2.13;;;4.50;99.90;;;;;;5060927;28;20028;-42
2023/02/25 01:36:53;;;;;;;7.93;1.73;;;4.50;99.90;;;;;;5061497;28;20043;-43
2023/02/25 01:39:21;;;;;;;9.70;1.88;;;4.50;99.90;;;;;;5053251;28;20029;-43
2023/02/25 01:41:51;;;;;;;8.55;2.00;;;4.50;99.90;;;;;;5040951;28;20033;-43
2023/02/25 01:44:21;;;;;;;8.75;2.10;;;4.50;99.90;;;;;;5052599;28;20079;-42
2023/02/25 01:46:51;;;;;;;7.65;1.83;;;4.40;99.90;;;;;;5041046;28;20017;-43
2023/02/25 01:49:39;;;;;;;13.13;2.47;;;4.40;99.90;;;;;;5053286;28;20094;-42
2023/02/25 01:52:28;;;;;;;11.15;2.20;;;4.40;99.90;;;;;;5040010;28;20063;-43
2023/02/25 01:54:56;;;;;;;11.30;2.58;;;4.30;99.90;;;;;;5058992;28;20078;-42
2023/02/25 01:57:24;;;;;;;10.80;2.13;;;4.40;99.90;;;;;;5060037;28;20836;-44
2023/02/25 01:59:52;;;;;;;9.77;2.08;;;4.40;99.90;;;;;;5059182;28;20103;-43
2023/02/25 02:02:20;;;;;;;12.32;2.28;;;4.40;99.90;;;;;;5060562;28;20031;-42
2023/02/25 02:04:49;;;;;;;11.43;1.92;;;4.40;99.90;;;;;;5059908;28;20033;-42
2023/02/25 02:07:15;;;;;;;12.80;2.10;;;4.40;99.90;;;;;;5059571;28;20029;-43
2023/02/25 02:09:55;;;;;;;8.27;2.15;;;4.50;99.90;;;;;;5059721;28;20033;-42
2023/02/25 02:12:42;;;;;;;6.72;1.38;;;4.50;99.90;;;;;;5040563;28;20416;-43
2023/02/25 02:15:11;;;;;;;7.45;1.80;;;4.60;99.90;;;;;;5057394;28;20044;-43
2023/02/25 02:17:55;;;;;;;6.40;1.40;;;4.60;99.90;;;;;;5060024;28;20036;-44
2023/02/25 02:20:32;;;;;;;7.72;1.92;;;4.70;99.90;;;;;;5058661;28;20024;-42
2023/02/25 02:23:22;;;;;;;5.30;1.40;;;4.70;99.90;;;;;;5060354;28;20832;-41
2023/02/25 02:26:12;;;;;;;10.45;2.05;;;4.70;99.90;;;;;;5047338;28;20056;-43
2023/02/25 02:29:23;;;;;;;6.43;1.50;;;4.80;99.90;;;;;;5060109;28;20072;-43
2023/02/25 02:31:54;;;;;;;10.30;2.05;;;4.80;99.90;;;;;;5050009;28;20037;-43
2023/02/25 02:34:24;;;;;;;10.63;2.25;;;4.80;99.90;;;;;;5059330;28;20491;-43
2023/02/25 02:37:22;;;;;;;9.43;1.70;;;4.70;99.90;;;;;;5050006;28;20046;-43
2023/02/25 02:39:55;;;;;;;8.20;2.00;;;4.80;99.90;;;;;;5063364;28;20050;-43
2023/02/25 02:42:59;;;;;;;10.18;1.40;;;4.80;99.90;;;;;;5051239;28;20044;-42
2023/02/25 02:45:28;;;;;;;10.40;1.45;;;4.80;99.90;;;;;;5051325;28;20092;-43
2023/02/25 02:48:01;;;;;;;6.25;1.30;;;4.80;99.90;;;;;;5048050;28;20025;-43
2023/02/25 02:50:49;;;;;;;8.75;1.40;;;4.80;99.90;;;;;;5049853;28;20027;-42
2023/02/25 02:53:32;;;;;;;10.63;1.60;;;4.80;99.90;;;;;;5047089;28;20043;-42
2023/02/25 02:55:59;;;;;;;;;;;4.80;99.90;;;;;;5052297;28;20027;-42
2023/02/25 02:58:37;;;;;;;14.00;2.10;;;4.80;99.90;;;;;;5063583;28;19982;-42
2023/02/25 03:01:09;;;;;;;10.20;1.80;;;4.80;99.90;;;;;;5063899;28;20098;-42
2023/02/25 03:03:40;;;;;;;10.93;2.33;;;4.80;99.90;;;;;;5063303;28;20039;-42
2023/02/25 03:06:18;;;;;;;7.13;1.60;;;4.80;99.90;;;;;;5064258;28;20025;-42
2023/02/25 03:08:54;;;;;;;6.30;1.42;;;4.80;99.90;;;;;;5063538;28;20039;-42
2023/02/25 03:11:20;;;;;;;11.95;2.75;;;4.80;99.90;;;;;;5064299;28;20062;-42
2023/02/25 03:13:49;;;;;;;10.57;2.35;;;4.90;99.90;;;;;;5048839;28;20419;-42
2023/02/25 03:16:51;;;;;;;11.93;1.90;;;4.90;99.90;;;;;;5048669;28;20041;-41
2023/02/25 03:19:22;;;;;;;10.93;1.80;;;4.90;99.90;;;;;;5036832;28;20143;-43
2023/02/25 03:21:53;;;;;;;11.68;2.15;;;4.90;99.90;;;;;;5051490;28;20879;-42
2023/02/25 03:24:22;;;;;;;9.80;2.30;;;4.90;99.90;;;;;;5063210;28;20039;-42
2023/02/25 03:26:50;;;;;;;8.38;1.90;;;4.90;99.90;;;;;;5063343;28;20134;-42
2023/02/25 03:29:20;;;;;;;8.40;1.85;;;4.90;99.90;;;;;;5049082;28;20033;-43
2023/02/25 03:32:04;;;;;;;12.50;2.38;;;4.90;99.90;;;;;;5047893;28;20020;-42
2023/02/25 03:34:37;;;;;;;9.48;2.17;;;4.90;99.90;;;;;;5062506;28;20044;-42
2023/02/25 03:37:08;;;;;;;9.53;1.80;;;4.90;99.90;;;;;;5062888;28;20038;-42
2023/02/25 03:39:39;;;;;;;9.63;2.25;;;4.90;99.90;;;;;;5062754;28;20314;-42
2023/02/25 03:42:10;;;;;;;13.38;2.33;;;4.90;99.90;;;;;;5062981;28;20112;-43
2023/02/25 03:44:49;;;;;;;8.68;2.05;;;4.90;99.90;;;;;;5049095;28;20120;-41
2023/02/25 03:47:18;;;;;;;9.13;2.55;;;4.90;99.90;;;;;;5048703;28;20677;-42
2023/02/25 03:49:58;;;;;;;12.05;2.10;;;4.90;99.90;;;;;;5063593;28;20032;-42
2023/02/25 03:52:25;;;;;;;10.40;2.15;;;4.90;99.90;;;;;;5062449;28;20468;-41
2023/02/25 03:54:53;;;;;;;14.30;2.38;;;4.90;99.90;;;;;;5049589;28;20036;-41
2023/02/25 03:57:19;;;;;;;11.40;3.00;;;5.00;99.90;;;;;;5046186;28;20685;-41
2023/02/25 03:59:45;;;;;;;10.65;2.33;;;5.00;99.90;;;;;;5051245;28;20033;-42
2023/02/25 04:02:16;;;;;;;11.13;2.33;;;4.90;99.90;;;;;;5044170;28;20375;-44
2023/02/25 04:04:44;;;;;;;11.43;2.10;;;4.90;99.90;;;;;;5053316;28;20033;-42
2023/02/25 04:07:10;;;;;;;11.25;2.78;;;4.90;99.90;;;;;;5043670;28;20025;-44
2023/02/25 04:09:39;;;;;;;10.10;2.05;;;4.80;99.90;;;;;;5053087;28;20044;-44
2023/02/25 04:12:07;;;;;;;19.10;3.67;;;4.80;99.90;;;;;;5042480;28;20040;-42
2023/02/25 04:14:33;;;;;;;13.60;2.85;;;4.80;99.90;;;;;;5054035;28;20079;-42
2023/02/25 04:16:59;;;;;;;14.85;2.90;;;4.80;99.90;;;;;;5041664;28;20152;-42
2023/02/25 04:19:24;;;;;;;18.73;2.80;;;4.70;99.90;;;;;;5054345;28;20025;-41
2023/02/25 04:21:53;;;;;;;9.70;2.40;;;4.60;99.90;;;;;;5042166;28;20036;-44
2023/02/25 04:24:18;;;;;;;12.40;2.13;;;4.60;99.90;;;;;;5054404;28;20167;-43
2023/02/25 04:26:44;;;;;;;11.95;2.58;;;4.50;99.90;;;;;;5042980;28;20211;-42
2023/02/25 04:29:09;;;;;;;12.20;2.58;;;4.50;99.90;;;;;;5052317;28;20025;-41
2023/02/25 04:31:35;;;;;;;8.68;1.52;;;4.50;99.90;;;;;;5062634;28;20049;-42
2023/02/25 04:34:03;;;;;;;7.82;1.75;;;4.40;99.90;;;;;;5061828;28;20039;-42
2023/02/25 04:36:30;;;;;;;9.95;1.80;;;4.40;99.90;;;;;;5047856;28;20032;-43
2023/02/25 04:38:57;;;;;;;10.23;2.65;;;4.40;99.90;;;;;;5047100;28;20032;-42
2023/02/25 04:41:23;;;;;;;11.48;2.13;;;4.40;99.90;;;;;;5061326;28;20024;-41
2023/02/25 04:43:49;;;;;;;8.30;1.88;;;4.30;99.90;;;;;;5061352;28;20131;-41
2023/02/25 04:46:15;;;;;;;6.93;2.03;;;4.30;99.90;;;;;;5051336;28;20128;-43
2023/02/25 04:48:40;;;;;;;8.10;1.90;;;4.30;99.90;;;;;;5041674;28;20460;-42
2023/02/25 04:51:07;;;;;;;7.55;1.30;;;4.20;99.90;;;;;;5053186;28;20055;-43
2023/02/25 04:53:33;;;;;;;8.98;1.80;;;4.20;99.90;;;;;;5042794;28;20032;-43
2023/02/25 04:56:04;;;;;;;9.82;1.75;;;4.20;99.90;;;;;;5061414;28;20086;-42
2023/02/25 04:58:30;;;;;;;3.95;1.50;;;4.20;99.90;;;;;;5061570;28;20103;-42
2023/02/25 05:00:58;;;;;;;5.32;1.48;;;4.20;99.90;;;;;;5060396;28;20116;-40
2023/02/25 05:03:24;;;;;;;8.48;1.83;;;4.20;99.90;;;;;;5062078;28;20060;-38
2023/02/25 05:05:50;;;;;;;11.35;3.00;;;4.20;99.90;;;;;;5061033;28;20051;-42
2023/02/25 05:08:16;;;;;;;9.77;2.13;;;4.20;99.90;;;;;;5061051;28;20037;-42
2023/02/25 05:10:41;;;;;;;9.15;1.75;;;4.20;99.90;;;;;;5060272;28;20093;-43
2023/02/25 05:13:07;;;;;;;7.97;1.70;;;4.20;99.90;;;;;;5042734;28;20025;-42
2023/02/25 05:15:33;;;;;;;6.55;1.55;;;4.30;99.90;;;;;;5048706;28;20049;-42
2023/02/25 05:17:58;;;;;;;12.10;1.80;;;4.30;99.90;;;;;;5045250;28;20779;-42
2023/02/25 05:20:24;;;;;;;8.40;1.60;;;4.30;99.90;;;;;;5046791;28;20035;-42
2023/02/25 05:22:49;;;;;;;3.95;1.30;;;4.30;99.90;;;;;;5059807;28;20831;-41
2023/02/25 05:25:15;;;;;;;11.38;1.90;;;4.30;99.90;;;;;;5061096;28;20124;-43
2023/02/25 05:27:41;;;;;;;7.32;1.42;;;4.30;99.90;;;;;;5051010;28;20067;-43
2023/02/25 05:30:07;;;;;;;16.15;2.70;;;4.30;99.90;;;;;;5041946;28;20448;-42
2023/02/25 05:32:33;;;;;;;17.63;3.05;;;4.40;99.90;;;;;;5051722;28;20044;-42
2023/02/25 05:34:59;;;;;;;15.48;2.58;;;4.40;99.90;;;;;;5042121;28;20060;-42
2023/02/25 05:37:24;;;;;;;10.45;2.40;;;4.40;99.90;;;;;;5056289;28;20032;-43
2023/02/25 05:39:50;;;;;;;11.68;2.63;;;4.40;99.90;;;;;;5059740;28;20020;-42
2023/02/25 05:42:16;;;;;;;13.05;2.20;;;4.50;99.90;;;;;;5047744;28;20037;-42
2023/02/25 05:44:41;;;;;;;17.45;2.97;;;4.50;99.90;;;;;;5059683;28;20062;-42
2023/02/25 05:47:09;;;;;;;10.05;3.00;;;4.50;99.90;;;;;;5048411;28;20105;-42
2023/02/25 05:49:35;;;;;;;11.70;3.05;;;4.50;99.90;;;;;;5040725;28;20040;-43
2023/02/25 05:52:00;;;;;;;9.32;2.03;;;4.60;99.90;;;;;;5054495;28;20017;-42
2023/02/25 05:54:26;;;;;;;10.48;2.20;;;4.50;99.90;;;;;;5060503;28;20028;-42
2023/02/25 05:56:52;;;;;;;9.52;1.70;;;4.60;99.90;;;;;;5052531;28;20029;-42
2023/02/25 05:59:18;;;;;;;8.27;1.90;;;4.60;99.90;;;;;;5055251;28;20113;-42
2023/02/25 06:01:46;;;;;;;9.13;1.60;;;4.60;99.90;;;;;;5055058;28;20025;-42
2023/02/25 06:04:12;;;;;;;9.30;1.55;;;4.70;99.90;;;;;;5053596;28;20496;-42
2023/02/25 06:06:37;;;;;;;8.82;1.92;;;4.70;99.90;;;;;;5059036;28;20100;-42
2023/02/25 06:09:08;;;;;;;7.25;2.00;;;4.70;99.90;;;;;;5060678;28;20024;-42
2023/02/25 06:11:34;;;;;;;9.60;1.60;;;4.70;99.90;;;;;;5056751;28;20037;-42
2023/02/25 06:14:00;;;;;;;7.53;2.03;;;4.70;99.90;;;;;;5047438;28;20013;-42
2023/02/25 06:16:30;;;;;;;7.30;1.70;;;4.70;99.90;;;;;;5059325;28;20032;-43
2023/02/25 06:19:00;;;;;;;5.45;1.70;;;4.70;99.90;;;;;;5048378;28;20028;-41
2023/02/25 06:21:25;;;;;;;14.93;2.70;;;4.60;99.90;;;;;;5059776;28;20048;-42
2023/02/25 06:23:52;;;;;;;10.25;2.78;;;4.60;99.90;;;;;;5048024;28;20123;-42
2023/02/25 06:26:18;;;;;;;8.80;2.30;;;4.60;99.90;;;;;;5060373;28;20309;-42
2023/02/25 06:28:47;;;;;;;8.88;2.65;;;4.50;99.90;;;;;;5047305;28;20037;-43
2023/02/25 06:31:15;;;;;;;9.27;1.88;;;4.50;99.90;;;;;;5060844;28;20032;-43
2023/02/25 06:33:41;;;;;;;12.07;2.40;;;4.50;99.90;;;;;;5058751;28;20201;-43
2023/02/25 06:36:08;;;;;;;6.82;1.83;;;4.40;99.90;;;;;;5060451;28;20140;-43
2023/02/25 06:38:36;;;;;;;10.05;1.30;;;4.40;99.90;;;;;;5060440;28;20028;-44
2023/02/25 06:41:07;;;;;;;6.65;1.50;;;4.40;99.90;;;;;;5060212;28;20031;-41
2023/02/25 06:43:33;;;;;;;7.97;1.55;;;4.30;99.90;;;;;;5060165;28;20063;-42
2023/02/25 06:46:02;;;;;;;4.47;1.10;;;4.30;99.90;;;;;;5060199;28;20040;-44
2023/02/25 06:48:27;;;;;;;8.68;1.77;;;4.30;99.90;;;;;;5059611;28;20735;-42
2023/02/25 06:50:53;;;;;;;9.70;1.40;;;4.30;99.90;;;;;;5059892;28;20050;-42
2023/02/25 06:53:18;;;;;;;8.25;1.63;;;4.40;99.90;;;;;;5056408;28;20032;-42
2023/02/25 06:55:44;;;;;;;8.55;1.83;;;4.40;99.90;;;;;;5050522;28;20029;-43
2023/02/25 06:58:09;;;;;;;10.55;3.75;;;4.40;99.90;;;;;;5058392;28;20496;-43
2023/02/25 07:00:36;;;;;;;11.10;3.33;;;4.50;99.90;;;;;;5048425;28;20029;-42
2023/02/25 07:03:02;;;;;;;8.20;2.08;;;4.50;99.90;;;;;;5058569;28;20613;-43
2023/02/25 07:05:30;;;;;;;6.10;1.85;;;4.60;99.90;;;;;;5048639;28;20032;-42
2023/02/25 07:07:56;;;;;;;10.90;2.05;;;4.50;99.90;;;;;;5040383;28;20381;-43
2023/02/25 07:10:25;;;;;;;7.68;1.88;;;4.50;99.90;;;;;;5058832;28;20025;-41
2023/02/25 07:12:51;;;;;;;9.88;2.13;;;4.50;99.90;;;;;;5060121;28;20025;-41
2023/02/25 07:15:17;;;;;;;12.35;2.58;;;4.50;99.90;;;;;;5059054;28;20052;-41
2023/02/25 07:17:45;;;;;;;8.30;1.90;;;4.50;99.90;;;;;;5059581;28;20039;-41
2023/02/25 07:20:11;;;;;;;13.15;3.88;;;4.50;99.90;;;;;;5059683;28;20035;-42
2023/02/25 07:22:37;;;;;;;12.88;2.65;;;4.50;99.90;;;;;;5058686;28;20024;-42
2023/02/25 07:25:03;;;;;;;10.50;2.42;;;4.50;99.90;;;;;;5061614;28;20086;-42
2023/02/25 07:27:28;;;;;;;14.32;2.97;;;4.50;99.90;;;;;;5046102;28;20025;-43
2023/02/25 07:29:57;;;;;;;11.90;2.33;;;4.50;99.90;;;;;;5049035;28;20020;-43
2023/02/25 07:32:28;;;;;;;11.73;2.97;;;4.50;99.90;;;;;;5058002;28;20035;-42
2023/02/25 07:34:54;;;;;;;10.75;2.13;;;4.60;99.90;;;;;;5059216;28;20043;-42
2023/02/25 07:37:19;;;;;;;10.75;2.53;;;4.60;99.90;;;;;;5049177;28;20021;-43
2023/02/25 07:39:51;;;;;;;7.50;1.90;;;4.60;99.90;;;;;;5043526;28;20064;-43
2023/02/25 07:42:17;;;;;;;15.50;2.33;;;4.70;99.90;;;;;;5051155;28;20032;-42
2023/02/25 07:44:42;;;;;;;13.75;2.20;;;4.80;99.90;;;;;;5042161;28;20024;-42
2023/02/25 07:47:08;;;;;;;9.98;2.08;;;4.80;99.90;;;;;;5053528;28;20021;-43
2023/02/25 07:49:34;;;;;;;7.28;1.90;;;4.80;99.90;;;;;;5044643;28;20017;-42
2023/02/25 07:51:59;;;;;;;6.88;1.95;;;4.90;99.90;;;;;;5060568;28;20032;-42
2023/02/25 07:54:28;;;;;;;10.60;2.03;;;5.00;99.90;;;;;;5063371;28;20750;-42
2023/02/25 07:56:54;;;;;;;7.38;1.80;;;5.00;99.90;;;;;;5062242;28;20019;-42
2023/02/25 07:59:19;;;;;;;7.32;1.60;;;5.10;99.90;;;;;;5061104;28;20033;-41
2023/02/25 08:01:45;;;;;;;9.43;1.90;;;5.10;99.90;;;;;;5061559;28;20021;-41
2023/02/25 08:04:10;;;;;;;8.55;2.40;;;5.20;99.90;;;;;;5062225;28;20373;-41
2023/02/25 08:06:39;;;;;;;8.55;2.08;;;5.30;99.90;;;;;;5062492;28;20025;-41
2023/02/25 08:09:06;;;;;;;6.90;2.17;;;5.30;99.90;;;;;;5063312;28;20039;-42
2023/02/25 08:11:32;;;;;;;9.82;1.70;;;5.30;99.90;;;;;;5062153;28;20831;-43
2023/02/25 08:14:01;;;;;;;11.07;2.80;;;5.30;99.90;;;;;;5062197;28;20301;-42
2023/02/25 08:16:27;;;;;;;9.50;2.28;;;5.30;99.90;;;;;;5062087;28;20051;-43
2023/02/25 08:18:52;;;;;;;8.50;2.40;;;5.30;99.90;;;;;;5061535;28;20039;-43
2023/02/25 08:21:22;;;;;;;13.38;2.67;;;5.30;99.90;;;;;;5061904;28;20029;-43
2023/02/25 08:23:52;;;;;;;16.10;2.58;;;5.30;99.90;;;;;;5062884;28;20467;-43
2023/02/25 08:26:19;;;;;;;15.77;2.78;;;5.40;99.90;;;;;;5062658;28;20036;-42
2023/02/25 08:28:45;;;;;;;12.95;2.45;;;5.40;99.90;;;;;;5062930;28;20027;-42
2023/02/25 08:31:11;;;;;;;9.90;2.38;;;5.50;99.90;;;;;;5062494;28;20024;-42
2023/02/25 08:33:43;;;;;;;7.93;1.85;;;5.60;99.90;;;;;;5061480;28;20028;-43
2023/02/25 08:36:16;;;;;;;11.20;2.47;;;5.60;99.90;;;;;;5061151;28;20111;-43
2023/02/25 08:38:44;;;;;;;8.23;1.92;;;5.70;99.90;;;;;;5061394;28;20070;-43
2023/02/25 08:41:10;;;;;;;9.60;2.00;;;5.70;99.90;;;;;;5061286;28;20031;-43
2023/02/25 08:43:36;;;;;;;11.68;2.17;;;5.80;99.90;;;;;;5062082;28;20029;-42
2023/02/25 08:46:01;;;;;;;6.93;1.52;;;5.90;99.90;;;;;;5061607;28;20125;-43
2023/02/25 08:48:27;;;;;;;5.60;1.48;;;5.90;99.90;;;;;;5060659;28;20025;-43
2023/02/25 08:50:54;;;;;;;8.43;2.13;;;5.90;99.90;;;;;;5061310;28;20068;-43
2023/02/25 08:53:20;;;;;;;10.27;2.25;;;6.00;99.90;;;;;;5060713;28;20403;-43
2023/02/25 08:55:46;;;;;;;5.97;1.80;;;6.00;99.90;;;;;;5041836;28;20102;-42
2023/02/25 08:58:12;;;;;;;5.55;1.60;;;6.00;99.90;;;;;;5050757;28;20098;-42
2023/02/25 09:00:37;;;;;;;5.47;1.75;;;6.10;99.90;;;;;;5060443;28;20033;-43
2023/02/25 09:03:03;;;;;;;7.15;1.40;;;6.10;99.90;;;;;;5061864;28;20028;-42
2023/02/25 09:05:28;;;;;;;6.80;1.65;;;6.10;99.90;;;;;;5061945;28;20047;-39
2023/02/25 09:07:54;;;;;;;9.38;1.65;;;6.10;99.90;;;;;;5061743;28;20028;-43
2023/02/25 09:10:20;;;;;;;7.40;2.17;;;6.10;99.90;;;;;;5061903;28;20036;-43
2023/02/25 09:12:46;;;;;;;5.07;1.13;;;6.10;99.90;;;;;;5061576;28;20624;-43
2023/02/25 09:15:12;;;;;;;6.53;1.60;;;6.10;99.90;;;;;;5051982;28;20074;-43
2023/02/25 09:17:38;;;;;;;5.32;1.13;;;6.10;99.90;;;;;;5060306;28;20763;-42
2023/02/25 09:20:06;;;;;;;6.00;1.60;;;6.20;99.90;;;;;;5061813;28;20008;-42
2023/02/25 09:22:33;;;;;;;5.07;1.30;;;6.20;99.90;;;;;;5059777;28;20118;-42
2023/02/25 09:24:58;;;;;;;6.18;1.20;;;6.20;99.90;;;;;;5050064;28;20033;-42
2023/02/25 09:27:24;;;;;;;4.20;1.13;;;6.30;99.90;;;;;;5054215;28;20835;-43
2023/02/25 09:29:49;;;;;;;3.33;1.02;;;6.20;99.90;;;;;;5053391;28;20027;-43
2023/02/25 09:32:18;;;;;;;3.17;1.20;;;6.10;99.90;;;;;;5041558;28;20476;-42
2023/02/25 09:34:51;;;;;;;4.38;0.95;;;6.00;99.90;;;;;;5053215;28;20073;-42
2023/02/25 09:37:18;;;;;;;;;;;5.90;99.90;;;;;;5042091;28;20033;-42
2023/02/25 09:39:44;;;;;;;2.33;0.90;;;5.90;99.90;;;;;;5052078;28;20314;-42
2023/02/25 09:42:17;;;;;;;5.40;1.02;;;5.80;99.90;;;;;;5043914;28;20033;-43
2023/02/25 09:44:46;;;;;;;3.90;0.90;;;5.70;99.90;;;;;;5049953;28;20044;-42
2023/02/25 09:47:18;;;;;;;6.40;1.23;;;5.80;99.90;;;;;;5061531;28;20024;-42
2023/02/25 09:49:54;;;;;;;5.67;1.20;;;5.90;99.90;;;;;;5058781;28;20036;-43
2023/02/25 09:52:29;;;;;;;3.10;1.00;;;6.00;99.90;;;;;;5042895;28;20068;-43
2023/02/25 09:54:59;;;;;;;3.58;1.00;;;6.00;99.90;;;;;;5049026;28;20031;-43
2023/02/25 09:57:25;;;;;;;3.63;1.20;;;6.10;99.90;;;;;;5044215;28;20468;-43
2023/02/25 09:59:52;;;;;;;2.75;0.80;;;6.20;99.90;;;;;;5045991;28;20542;-43
2023/02/25 10:02:57;;;;;;;3.72;0.93;;;6.30;99.90;;;;;;5060290;28;20024;-43
2023/02/25 10:05:48;;;;;;;7.85;1.40;;;6.50;99.90;;;;;;5059107;28;20442;-43
2023/02/25 10:08:27;;;;;;;10.15;1.55;;;6.60;99.90;;;;;;5039756;28;20061;-43
2023/02/25 10:11:02;;;;;;;6.88;1.40;;;6.70;99.90;;;;;;5055567;28;20112;-43
2023/02/25 10:13:53;;;;;;;4.75;1.45;;;6.80;99.90;;;;;;5041293;28;20044;-43
2023/02/25 10:16:46;;;;;;;3.85;1.40;;;6.90;99.90;;;;;;5058989;28;20043;-43
2023/02/25 10:19:39;;;;;;;5.32;1.55;;;7.00;99.90;;;;;;5061292;28;20358;-43
2023/02/25 10:22:20;;;;;;;5.78;1.67;;;7.00;99.90;;;;;;5060655;28;20763;-43
2023/02/25 10:24:52;;;;;;;6.97;1.42;;;7.10;99.90;;;;;;5059298;28;20039;-44
2023/02/25 10:27:27;;;;;;;5.47;1.40;;;7.20;99.90;;;;;;5060928;28;20032;-43
2023/02/25 10:30:00;;;;;;;6.90;1.20;;;7.20;99.90;;;;;;5060369;28;20029;-43
2023/02/25 10:32:31;;;;;;;5.53;1.30;;;7.30;99.90;;;;;;5049315;28;20040;-43
2023/02/25 10:35:02;;;;;;;10.35;2.22;;;7.30;99.90;;;;;;5060505;28;20032;-43
2023/02/25 10:37:32;;;;;;;6.82;1.50;;;7.30;99.90;;;;;;5058008;28;20024;-44
2023/02/25 10:39:59;;;;;;;4.13;1.27;;;7.30;99.90;;;;;;5060298;28;20021;-42
2023/02/25 10:42:26;;;;;;;4.03;1.30;;;7.20;99.90;;;;;;5059950;28;20581;-42
2023/02/25 10:44:53;;;;;;;5.22;1.20;;;7.10;99.90;;;;;;5060430;28;20068;-43
2023/02/25 10:47:32;;;;;;;5.03;1.27;;;7.10;99.90;;;;;;5047528;28;20029;-42
2023/02/25 10:50:20;;;;;;;5.82;1.70;;;7.10;99.90;;;;;;5060683;28;20029;-43
2023/02/25 10:52:53;;;;;;;6.57;2.17;;;7.10;99.90;;;;;;5047760;28;20023;-42
2023/02/25 10:55:36;;;;;;;6.78;1.27;;;7.00;99.90;;;;;;5061714;28;20032;-43
2023/02/25 10:58:03;;;;;;;4.20;1.17;;;6.70;99.90;;;;;;5060254;28;20079;-42
2023/02/25 11:00:32;;;;;;;5.00;1.65;;;6.50;99.90;;;;;;5062911;28;20034;-43
2023/02/25 11:03:00;;;;;;;5.53;1.35;;;6.30;99.90;;;;;;5063803;28;20024;-42
2023/02/25 11:05:44;;;;;;;1.92;0.93;;;6.10;99.90;;;;;;5064684;28;20032;-42
2023/02/25 11:08:31;;;;;;;4.03;1.30;;;6.00;99.90;;;;;;5062431;28;20523;-43
2023/02/25 11:11:16;;;;;;;3.88;1.17;;;6.00;99.90;;;;;;5064093;28;20064;-43
2023/02/25 11:14:03;;;;;;;4.30;1.33;;;5.90;99.90;;;;;;5060691;28;20035;-43
2023/02/25 11:16:33;;;;;;;3.67;1.15;;;5.90;99.90;;;;;;5064173;28;20503;-43
2023/02/25 11:19:04;;;;;;;3.70;1.40;;;5.80;99.90;;;;;;5052999;28;20016;-43
2023/02/25 11:21:35;;;;;;;8.02;1.42;;;5.70;99.90;;;;;;5063169;28;20028;-43
2023/02/25 11:24:32;;;;;;;7.67;1.30;;;5.70;99.90;;;;;;5060472;28;20471;-42
2023/02/25 11:27:00;;;;;;;4.85;1.23;;;5.70;99.90;;;;;;5047440;28;20310;-43
2023/02/25 11:29:42;;;;;;;7.25;1.85;;;5.70;99.90;;;;;;5052364;28;20021;-43
2023/02/25 11:32:12;;;;;;;6.57;1.50;;;5.60;99.90;;;;;;5063798;28;20087;-43
2023/02/25 11:34:49;;;;;;;5.28;1.20;;;5.60;99.90;;;;;;5055936;28;20795;-43
2023/02/25 11:37:36;;;;;;;6.57;1.40;;;5.60;99.90;;;;;;5062812;28;20127;-43
2023/02/25 11:40:23;;;;;;;7.20;1.60;;;5.70;99.90;;;;;;5054140;28;20063;-43
2023/02/25 11:43:04;;;;;;;5.50;1.30;;;5.90;99.90;;;;;;5062537;28;20082;-43
2023/02/25 11:45:33;;;;;;;6.05;1.63;;;6.00;99.90;;;;;;5063641;28;20072;-43
2023/02/25 11:47:59;;;;;;;7.63;2.45;;;6.10;99.90;;;;;;5063510;28;20031;-43
2023/02/25 11:50:57;;;;;;;8.45;1.50;;;6.20;99.90;;;;;;5062976;28;20025;-43
2023/02/25 11:53:46;;;;;;;5.88;1.55;;;6.40;99.90;;;;;;5045113;28;20036;-43
2023/02/25 11:56:43;;;;;;;6.38;1.73;;;6.50;99.90;;;;;;5063463;28;20129;-42
2023/02/25 11:59:48;;;;;;;5.93;1.42;;;6.50;99.90;;;;;;5064358;28;20062;-43
2023/02/25 12:02:40;;;;;;;5.97;1.90;;;6.60;99.90;;;;;;5044716;28;20053;-43
2023/02/25 12:05:23;;;;;;;7.53;1.40;;;6.80;99.90;;;;;;5061681;28;20566;-44
2023/02/25 12:08:19;;;;;;;6.72;1.65;;;7.00;99.90;;;;;;5063833;28;20031;-44
2023/02/25 12:10:51;;;;;;;4.45;1.45;;;7.10;99.90;;;;;;5059810;28;20040;-44
2023/02/25 12:13:34;;;;;;;7.93;1.80;;;7.20;99.90;;;;;;5063877;28;20032;-43
2023/02/25 12:16:42;;;;;;;5.35;1.60;;;7.30;99.90;;;;;;5060734;28;20068;-43
2023/02/25 12:19:32;;;;;;;6.05;1.55;;;7.40;99.10;;;;;;5059414;28;20048;-44
2023/02/25 12:22:19;;;;;;;3.78;1.98;;;7.40;99.70;;;;;;5056196;28;20037;-43
2023/02/25 12:24:56;;;;;;;7.38;1.75;;;7.20;98.30;;;;;;5062798;28;20044;-43
2023/02/25 12:27:40;;;;;;;5.10;1.67;;;7.10;98.90;;;;;;5063521;28;20024;-44
2023/02/25 12:30:20;;;;;;;7.72;1.95;;;7.00;98.60;;;;;;5062524;28;20638;-43
2023/02/25 12:33:18;;;;;;;6.03;1.38;;;7.00;98.30;;;;;;5062094;28;20028;-43
2023/02/25 12:35:59;;;;;;;7.72;1.90;;;7.20;97.70;;;;;;5058342;28;20047;-43
2023/02/25 12:39:02;;;;;;;8.15;1.80;;;7.30;97.90;;;;;;5041499;28;20817;-43
2023/02/25 12:41:49;;;;;;;5.75;1.60;;;7.20;97.30;;;;;;5061901;28;20060;-43
2023/02/25 12:44:36;;;;;;;5.43;1.88;;;7.20;97.40;;;;;;5062610;28;20083;-43
2023/02/25 12:47:30;;;;;;;7.60;1.83;;;7.10;96.90;;;;;;5060199;28;20434;-42
2023/02/25 12:50:21;;;;;;;8.13;1.50;;;7.00;95.50;;;;;;5060446;28;20025;-43
2023/02/25 12:52:52;;;;;;;6.25;1.65;;;7.00;94.70;;;;;;5053254;28;20123;-43
2023/02/25 12:55:33;;;;;;;8.88;1.88;;;7.00;94.70;;;;;;5062307;28;20029;-43
2023/02/25 12:58:17;;;;;;;7.53;2.08;;;7.10;95.00;;;;;;5062412;28;20062;-44
2023/02/25 13:01:08;;;;;;;5.65;1.80;;;7.30;94.80;;;;;;5061107;28;20170;-44
2023/02/25 13:03:47;;;;;;;9.88;2.35;;;7.40;94.40;;;;;;5046604;28;20025;-43
2023/02/25 13:06:34;;;;;;;7.07;2.20;;;7.40;93.80;;;;;;5049686;28;20074;-44
2023/02/25 13:09:18;;;;;;;5.63;1.85;;;7.30;93.80;;;;;;5061240;28;20483;-43
2023/02/25 13:12:02;;;;;;;4.75;1.83;;;7.20;92.20;;;;;;5062095;28;20147;-44
2023/02/25 13:15:04;;;;;;;7.35;1.65;;;7.10;93.40;;;;;;5044698;28;20442;-44
2023/02/25 13:18:08;;;;;;;9.60;2.05;;;7.10;93.30;;;;;;5061426;28;20118;-43
2023/02/25 13:21:11;;;;;;;5.38;1.60;;;7.10;93.10;;;;;;5059110;28;20041;-44